Cape Girardeau Regional Airport


Codes: KCGI/CGI
Name: Cape Girardeau Regional Airport
City: Cape Girardeau
Country: United States
Elevation: 342 ft.
Wikipedia:

Photos at Cape Girardeau Regional Airport


   Photos courtesy of SpottingLog. You can add your own sightings and photos by signing up for a free trial today.



No photos found.

Weather at Cape Girardeau Regional Airport


Time (UTC)DescriptionTempratureWindCloud coverageVisibilityPressureHumidity
25-Jun-2024 15:00Scattered Clouds25°C11 mph, SW48%10000m1014hPa75%
25-Jun-2024 18:00Broken Clouds30°C9 mph, SW61%10000m1013hPa64%
25-Jun-2024 21:00Overcast Clouds34°C11 mph, SW100%10000m1011hPa51%
26-Jun-2024 00:00Overcast Clouds31°C7 mph, S100%10000m1010hPa68%
26-Jun-2024 03:00Broken Clouds28°C9 mph, S69%10000m1010hPa69%
26-Jun-2024 06:00Scattered Clouds26°C9 mph, SW41%10000m1011hPa75%
26-Jun-2024 09:00Few Clouds24°C9 mph, SW18%10000m1009hPa75%
26-Jun-2024 12:00Clear Sky23°C7 mph, SW9%10000m1011hPa82%
26-Jun-2024 15:00Scattered Clouds29°C11 mph, W35%10000m1011hPa66%
26-Jun-2024 18:00Light Rain33°C9 mph, SW65%10000m1008hPa56%
26-Jun-2024 21:00Light Rain28°C11 mph, N98%10000m1008hPa78%
27-Jun-2024 00:00Light Rain27°C16 mph, N81%10000m1008hPa80%
27-Jun-2024 03:00Light Rain23°C7 mph, NE2%10000m1010hPa91%
27-Jun-2024 06:00Clear Sky22°C7 mph, N2%10000m1011hPa95%
27-Jun-2024 09:00Clear Sky20°C9 mph, N5%10000m1012hPa94%
27-Jun-2024 12:00Scattered Clouds20°C9 mph, N31%10000m1012hPa90%
27-Jun-2024 15:00Clear Sky25°C9 mph, NE6%10000m1013hPa75%
27-Jun-2024 18:00Scattered Clouds28°C9 mph, E45%10000m1013hPa58%
27-Jun-2024 21:00Overcast Clouds29°C4 mph, NE99%10000m1011hPa52%
28-Jun-2024 00:00Overcast Clouds26°C4 mph, NE100%10000m1011hPa70%
28-Jun-2024 03:00Overcast Clouds22°C7 mph, E100%10000m1011hPa80%
28-Jun-2024 06:00Overcast Clouds20°C4 mph, SE100%10000m1011hPa87%
28-Jun-2024 09:00Overcast Clouds21°C4 mph, E93%10000m1010hPa78%
28-Jun-2024 12:00Overcast Clouds21°C7 mph, SE97%10000m1011hPa82%
28-Jun-2024 15:00Overcast Clouds24°C7 mph, S100%10000m1011hPa79%
28-Jun-2024 18:00Overcast Clouds28°C9 mph, S100%10000m1011hPa71%
28-Jun-2024 21:00Broken Clouds32°C13 mph, S62%10000m1009hPa52%
29-Jun-2024 00:00Broken Clouds30°C9 mph, S53%10000m1008hPa67%
29-Jun-2024 03:00Scattered Clouds26°C9 mph, S50%10000m1009hPa75%
29-Jun-2024 06:00Scattered Clouds26°C9 mph, S32%10000m1010hPa85%
29-Jun-2024 09:00Overcast Clouds24°C7 mph, SW99%10000m1011hPa88%
29-Jun-2024 12:00Overcast Clouds25°C7 mph, SW99%10000m1013hPa88%
29-Jun-2024 15:00Overcast Clouds30°C9 mph, SW100%10000m1014hPa69%
29-Jun-2024 18:00Overcast Clouds34°C9 mph, SW86%10000m1014hPa55%
29-Jun-2024 21:00Light Rain30°C9 mph, NW86%10000m1014hPa75%
30-Jun-2024 00:00Moderate Rain25°C16 mph, NW93%3804m1015hPa93%
30-Jun-2024 03:00Heavy Intensity Rain24°C2 mph, N100%3716m1017hPa98%
30-Jun-2024 06:00Moderate Rain23°C7 mph, NE99%10000m1018hPa96%
30-Jun-2024 09:00Broken Clouds22°C11 mph, NE77%10000m1019hPa95%
30-Jun-2024 12:00Overcast Clouds20°C11 mph, N89%10000m1021hPa93%